createdAt,value
2023-02-19T00:01:53.539Z,12.32
2023-02-19T00:04:23.689Z,12.33
2023-02-19T00:06:52.509Z,12.35
2023-02-19T00:09:22.503Z,12.34
2023-02-19T00:11:50.923Z,12.36
2023-02-19T00:14:21.927Z,12.34
2023-02-19T00:16:50.549Z,12.34
2023-02-19T00:19:21.125Z,12.35
2023-02-19T00:21:51.853Z,12.34
2023-02-19T00:24:20.730Z,12.35
2023-02-19T00:26:50.631Z,12.36
2023-02-19T00:29:20.928Z,12.39
2023-02-19T00:31:49.814Z,12.39
2023-02-19T00:34:18.273Z,12.38
2023-02-19T00:36:46.659Z,12.36
2023-02-19T00:39:18.305Z,12.34
2023-02-19T00:41:46.924Z,12.35
2023-02-19T00:44:17.289Z,12.33
2023-02-19T00:46:47.691Z,12.33
2023-02-19T00:49:19.315Z,12.32
2023-02-19T00:51:48.244Z,12.30
2023-02-19T00:54:17.279Z,12.31
2023-02-19T00:56:45.752Z,12.32
2023-02-19T00:59:14.088Z,12.33
2023-02-19T01:01:45.402Z,12.34
2023-02-19T01:04:15.010Z,12.34
2023-02-19T01:06:43.379Z,12.33
2023-02-19T01:09:11.894Z,12.30
2023-02-19T01:11:40.233Z,12.30
2023-02-19T01:14:08.666Z,12.31
2023-02-19T01:16:37.196Z,12.33
2023-02-19T01:19:07.255Z,12.30
2023-02-19T01:21:35.596Z,12.28
2023-02-19T01:24:04.001Z,12.26
2023-02-19T01:26:34.113Z,12.26
2023-02-19T01:29:03.170Z,12.26
2023-02-19T01:31:31.695Z,12.25
2023-02-19T01:34:01.945Z,12.24
2023-02-19T01:36:34.338Z,12.25
2023-02-19T01:39:04.919Z,12.23
2023-02-19T01:41:37.037Z,12.21
2023-02-19T01:44:08.045Z,12.23
2023-02-19T01:46:38.264Z,12.24
2023-02-19T01:49:11.781Z,12.25
2023-02-19T01:51:46.003Z,12.25
2023-02-19T01:54:17.185Z,12.21
2023-02-19T01:56:48.650Z,12.22
2023-02-19T01:59:19.314Z,12.21
2023-02-19T02:01:47.966Z,12.20
2023-02-19T02:04:18.918Z,12.18
2023-02-19T02:06:52.584Z,12.18
2023-02-19T02:09:40.525Z,12.16
2023-02-19T02:12:09.129Z,12.13
2023-02-19T02:14:41.285Z,12.12
2023-02-19T02:17:16.721Z,12.11
2023-02-19T02:20:11.446Z,12.10
2023-02-19T02:22:45.694Z,12.07
2023-02-19T02:25:45.217Z,12.07
2023-02-19T02:28:33.185Z,12.09
2023-02-19T02:31:07.933Z,12.08
2023-02-19T02:33:41.062Z,12.09
2023-02-19T02:36:16.383Z,12.09
2023-02-19T02:38:47.147Z,12.06
2023-02-19T02:41:16.517Z,12.08
2023-02-19T02:43:44.859Z,12.11
2023-02-19T02:46:21.006Z,12.11
2023-02-19T02:48:54.057Z,12.13
2023-02-19T02:51:26.716Z,12.09
2023-02-19T02:54:15.707Z,12.09
2023-02-19T02:56:46.147Z,12.08
2023-02-19T02:59:16.805Z,12.05
2023-02-19T03:02:08.119Z,12.01
2023-02-19T03:05:03.188Z,11.98
2023-02-19T03:07:38.101Z,11.98
2023-02-19T03:10:12.992Z,11.98
2023-02-19T03:13:03.646Z,11.94
2023-02-19T03:15:56.272Z,11.93
2023-02-19T03:18:53.420Z,11.92
2023-02-19T03:21:23.222Z,11.91
2023-02-19T03:24:10.290Z,11.89
2023-02-19T03:26:42.388Z,11.86
2023-02-19T03:29:25.967Z,11.83
2023-02-19T03:31:58.335Z,11.82
2023-02-19T03:34:33.614Z,11.83
2023-02-19T03:37:07.308Z,11.86
2023-02-19T03:39:44.282Z,11.86
2023-02-19T03:42:21.290Z,11.83
2023-02-19T03:45:02.561Z,11.82
2023-02-19T03:47:34.725Z,11.82
2023-02-19T03:50:15.086Z,11.83
2023-02-19T03:52:52.760Z,11.82
2023-02-19T03:55:27.717Z,11.81
2023-02-19T03:58:03.872Z,11.81
2023-02-19T04:00:37.962Z,11.82
2023-02-19T04:03:13.939Z,11.85
2023-02-19T04:05:48.366Z,11.83
2023-02-19T04:08:19.847Z,11.81
2023-02-19T04:10:48.740Z,11.78
2023-02-19T04:13:20.742Z,11.79
2023-02-19T04:15:51.800Z,11.79
2023-02-19T04:18:25.092Z,11.78
2023-02-19T04:20:55.081Z,11.77
2023-02-19T04:23:28.880Z,11.73
2023-02-19T04:26:01.060Z,11.76
2023-02-19T04:28:30.035Z,11.78
2023-02-19T04:30:58.403Z,11.80
2023-02-19T04:33:26.899Z,11.85
2023-02-19T04:35:56.566Z,11.83
2023-02-19T04:38:24.908Z,11.87
2023-02-19T04:40:53.225Z,11.83
2023-02-19T04:43:21.655Z,11.76
2023-02-19T04:45:50.131Z,11.71
2023-02-19T04:48:18.502Z,11.61
2023-02-19T04:50:47.492Z,11.57
2023-02-19T04:53:17.205Z,11.58
2023-02-19T04:55:46.877Z,11.47
2023-02-19T04:58:15.671Z,11.38
2023-02-19T05:00:43.990Z,11.32
2023-02-19T05:03:12.458Z,11.26
2023-02-19T05:05:40.834Z,11.23
2023-02-19T05:08:09.195Z,11.18
2023-02-19T05:10:38.854Z,11.21
2023-02-19T05:13:07.225Z,11.21
2023-02-19T05:15:35.601Z,11.19
2023-02-19T05:18:12.313Z,11.12
2023-02-19T05:20:40.646Z,11.04
2023-02-19T05:23:08.972Z,10.96
2023-02-19T05:25:38.688Z,10.85
2023-02-19T05:28:17.926Z,10.76
2023-02-19T05:30:50.867Z,10.70
2023-02-19T05:33:21.331Z,10.66
2023-02-19T05:35:51.574Z,10.56
2023-02-19T05:38:20.857Z,10.48
2023-02-19T05:40:50.976Z,10.44
2023-02-19T05:43:19.656Z,10.39
2023-02-19T05:45:48.379Z,10.35
2023-02-19T05:48:16.966Z,10.32
2023-02-19T05:50:45.320Z,10.23
2023-02-19T05:53:13.713Z,10.18
2023-02-19T05:55:42.278Z,10.20
2023-02-19T05:58:11.941Z,10.18
2023-02-19T06:00:40.327Z,10.23
2023-02-19T06:03:08.776Z,10.23
2023-02-19T06:05:38.498Z,10.29
2023-02-19T06:08:07.078Z,10.32
2023-02-19T06:10:36.621Z,10.30
2023-02-19T06:13:04.958Z,10.24
2023-02-19T06:15:34.724Z,10.27
2023-02-19T06:18:03.295Z,10.23
2023-02-19T06:20:31.667Z,10.23
2023-02-19T06:23:01.415Z,10.19
2023-02-19T06:25:29.801Z,10.20
2023-02-19T06:27:58.187Z,10.14
2023-02-19T06:30:26.746Z,10.11
2023-02-19T06:33:00.009Z,10.08
2023-02-19T06:35:28.383Z,10.07
2023-02-19T06:37:56.676Z,10.05
2023-02-19T06:40:24.988Z,10.06
2023-02-19T06:42:53.363Z,10.08
2023-02-19T06:45:21.723Z,10.09
2023-02-19T06:47:51.348Z,10.11
2023-02-19T06:50:21.143Z,10.11
2023-02-19T06:52:49.512Z,10.09
2023-02-19T06:55:18.106Z,10.12
2023-02-19T06:57:46.413Z,10.10
2023-02-19T07:00:15.413Z,10.11
2023-02-19T07:02:43.869Z,10.07
2023-02-19T07:05:12.177Z,10.06
2023-02-19T07:07:42.133Z,10.04
2023-02-19T07:10:10.796Z,10.00
2023-02-19T07:12:39.274Z,10.01
2023-02-19T07:15:08.373Z,10.01
2023-02-19T07:17:37.202Z,9.99
2023-02-19T07:20:06.103Z,10.04
2023-02-19T07:22:34.410Z,10.04
2023-02-19T07:25:04.237Z,10.08
2023-02-19T07:27:35.441Z,10.10
2023-02-19T07:30:03.927Z,10.10
2023-02-19T07:32:32.316Z,10.10
2023-02-19T07:35:00.649Z,10.12
2023-02-19T07:37:29.039Z,10.13
2023-02-19T07:39:57.449Z,10.15
2023-02-19T07:42:27.264Z,10.17
2023-02-19T07:44:55.640Z,10.20
2023-02-19T07:47:23.993Z,10.24
2023-02-19T07:49:52.271Z,10.29
2023-02-19T07:52:20.695Z,10.32
2023-02-19T07:54:48.981Z,10.33
2023-02-19T07:57:17.293Z,10.32
2023-02-19T07:59:47.105Z,10.35
2023-02-19T08:02:35.322Z,10.35
2023-02-19T08:05:03.991Z,10.35
2023-02-19T08:07:33.609Z,10.34
2023-02-19T08:10:16.269Z,10.31
2023-02-19T08:13:01.877Z,10.33
2023-02-19T08:15:31.638Z,10.36
2023-02-19T08:17:59.908Z,10.39
2023-02-19T08:20:28.194Z,10.43
2023-02-19T08:23:04.259Z,10.47
2023-02-19T08:25:32.682Z,10.49
2023-02-19T08:28:01.618Z,10.52
2023-02-19T08:30:32.940Z,10.58
2023-02-19T08:33:02.542Z,10.63
2023-02-19T08:35:31.188Z,10.68
2023-02-19T08:38:02.637Z,10.70
2023-02-19T08:40:31.174Z,10.77
2023-02-19T08:43:07.274Z,10.86
2023-02-19T08:45:38.332Z,10.93
2023-02-19T08:48:07.226Z,10.99
2023-02-19T08:50:36.163Z,11.05
2023-02-19T08:53:06.024Z,11.09
2023-02-19T08:55:34.792Z,11.13
2023-02-19T08:58:03.311Z,11.17
2023-02-19T09:00:31.748Z,11.20
2023-02-19T09:03:01.898Z,11.22
2023-02-19T09:05:30.428Z,11.26
2023-02-19T09:07:58.769Z,11.29
2023-02-19T09:10:27.168Z,11.33
2023-02-19T09:12:55.464Z,11.41
2023-02-19T09:15:23.823Z,11.52
2023-02-19T09:17:53.276Z,11.65
2023-02-19T09:20:23.124Z,11.73
2023-02-19T09:22:51.762Z,11.81
2023-02-19T09:25:20.135Z,11.90
2023-02-19T09:27:48.872Z,11.95
2023-02-19T09:30:17.433Z,12.02
2023-02-19T09:32:45.816Z,12.15
2023-02-19T09:35:14.314Z,12.25
2023-02-19T09:37:44.244Z,12.32
2023-02-19T09:40:13.432Z,12.39
2023-02-19T09:42:43.913Z,12.49
2023-02-19T09:45:20.557Z,12.60
2023-02-19T09:47:49.593Z,12.69
2023-02-19T09:50:22.260Z,12.78
2023-02-19T09:52:55.883Z,12.95
2023-02-19T09:55:32.490Z,13.08
2023-02-19T09:58:04.007Z,13.13
2023-02-19T10:00:35.840Z,13.23
2023-02-19T10:03:07.195Z,13.30
2023-02-19T10:05:36.216Z,13.28
2023-02-19T10:08:10.530Z,13.33
2023-02-19T10:10:39.460Z,13.28
2023-02-19T10:13:16.155Z,13.23
2023-02-19T10:15:48.980Z,13.13
2023-02-19T10:18:19.503Z,13.02
2023-02-19T10:20:48.680Z,12.90
2023-02-19T10:23:18.826Z,12.79
2023-02-19T10:25:51.221Z,12.76
2023-02-19T10:28:22.367Z,12.73
2023-02-19T10:30:54.934Z,12.44
2023-02-19T10:33:23.923Z,12.10
2023-02-19T10:35:56.224Z,11.74
2023-02-19T10:38:29.535Z,11.49
2023-02-19T10:41:02.128Z,11.25
2023-02-19T10:43:33.838Z,10.99
2023-02-19T10:46:06.549Z,10.82
2023-02-19T10:48:38.321Z,10.77
2023-02-19T10:51:10.623Z,10.63
2023-02-19T10:53:46.787Z,10.41
2023-02-19T10:56:17.382Z,10.29
2023-02-19T10:58:47.226Z,10.23
2023-02-19T11:01:22.404Z,10.12
2023-02-19T11:03:51.883Z,10.13
2023-02-19T11:06:22.691Z,10.16
2023-02-19T11:08:55.113Z,10.19
2023-02-19T11:11:26.368Z,10.19
2023-02-19T11:13:56.629Z,10.07
2023-02-19T11:16:25.685Z,9.97
2023-02-19T11:18:58.261Z,9.99
2023-02-19T11:21:32.902Z,9.90
2023-02-19T11:24:04.709Z,9.80
2023-02-19T11:26:38.143Z,9.75
2023-02-19T11:29:20.077Z,9.74
2023-02-19T11:31:48.472Z,9.71
2023-02-19T11:34:31.078Z,9.63
2023-02-19T11:37:14.514Z,9.64
2023-02-19T11:39:46.169Z,9.59
2023-02-19T11:42:30.128Z,9.58
2023-02-19T11:45:19.720Z,9.64
2023-02-19T11:48:07.002Z,9.64
2023-02-19T11:50:50.743Z,9.69
2023-02-19T11:53:26.880Z,9.77
2023-02-19T11:56:12.221Z,9.78
2023-02-19T11:59:03.930Z,9.83
2023-02-19T12:01:54.530Z,9.83
2023-02-19T12:04:52.665Z,9.84
2023-02-19T12:07:37.157Z,9.91
2023-02-19T12:10:15.798Z,9.93
2023-02-19T12:12:57.332Z,9.91
2023-02-19T12:15:40.899Z,9.92
2023-02-19T12:18:40.024Z,9.97
2023-02-19T12:21:22.354Z,10.04
2023-02-19T12:24:07.921Z,10.04
2023-02-19T12:26:42.281Z,10.05
2023-02-19T12:29:36.846Z,10.10
2023-02-19T12:32:29.991Z,10.05
2023-02-19T12:35:33.184Z,10.00
2023-02-19T12:38:17.038Z,9.99
2023-02-19T12:40:59.346Z,9.91
2023-02-19T12:43:27.976Z,9.84
2023-02-19T12:46:02.506Z,9.78
2023-02-19T12:48:36.419Z,9.71
2023-02-19T12:51:08.095Z,9.65
2023-02-19T12:53:42.891Z,9.65
2023-02-19T12:56:18.547Z,9.59
2023-02-19T12:58:51.709Z,9.56
2023-02-19T13:01:27.814Z,9.54
2023-02-19T13:04:15.248Z,9.52
2023-02-19T13:06:47.971Z,9.54
2023-02-19T13:09:22.428Z,9.52
2023-02-19T13:11:56.456Z,9.54
2023-02-19T13:14:29.998Z,9.56
2023-02-19T13:17:04.044Z,9.57
2023-02-19T13:19:33.854Z,9.55
2023-02-19T13:22:39.861Z,9.54
2023-02-19T13:25:11.248Z,9.55
2023-02-19T13:28:16.461Z,9.52
2023-02-19T13:31:01.633Z,9.53
2023-02-19T13:33:45.005Z,9.63
2023-02-19T13:36:16.782Z,9.65
2023-02-19T13:38:47.377Z,9.73
2023-02-19T13:41:28.914Z,9.83
2023-02-19T13:44:00.504Z,9.83
2023-02-19T13:46:37.798Z,9.85
2023-02-19T13:49:27.176Z,9.92
2023-02-19T13:51:56.401Z,9.94
2023-02-19T13:54:27.656Z,9.97
2023-02-19T13:57:30.090Z,9.97
2023-02-19T14:00:00.193Z,9.93
2023-02-19T14:02:34.220Z,9.92
2023-02-19T14:05:07.610Z,9.92
2023-02-19T14:07:57.959Z,9.96
2023-02-19T14:11:02.534Z,10.02
2023-02-19T14:14:11.616Z,9.98
2023-02-19T14:17:01.240Z,9.84
2023-02-19T14:19:51.588Z,9.81
2023-02-19T14:23:02.675Z,9.78
2023-02-19T14:25:44.804Z,9.77
2023-02-19T14:28:37.065Z,9.76
2023-02-19T14:31:18.789Z,9.83
2023-02-19T14:33:51.010Z,9.97
2023-02-19T14:36:29.729Z,10.09
2023-02-19T14:39:01.842Z,10.15
2023-02-19T14:41:34.640Z,10.15
2023-02-19T14:44:14.850Z,10.16
2023-02-19T14:46:50.181Z,10.17
2023-02-19T14:49:24.627Z,10.14
2023-02-19T14:51:59.334Z,10.05
2023-02-19T14:54:41.633Z,9.96
2023-02-19T14:57:18.859Z,9.84
2023-02-19T14:59:57.510Z,9.71
2023-02-19T15:02:27.132Z,9.71
2023-02-19T15:04:56.375Z,9.73
2023-02-19T15:07:27.721Z,9.74
2023-02-19T15:10:05.059Z,9.81
2023-02-19T15:12:42.521Z,9.81
2023-02-19T15:15:18.482Z,9.80
2023-02-19T15:17:51.977Z,9.76
2023-02-19T15:20:23.995Z,9.76
2023-02-19T15:22:54.239Z,9.75
2023-02-19T15:25:24.834Z,9.75
2023-02-19T15:27:54.759Z,9.77
2023-02-19T15:30:25.084Z,9.74
2023-02-19T15:32:54.481Z,9.72
2023-02-19T15:35:25.195Z,9.73
2023-02-19T15:37:55.686Z,9.69
2023-02-19T15:40:27.744Z,9.65
2023-02-19T15:42:58.784Z,9.61
2023-02-19T15:45:31.835Z,9.53
2023-02-19T15:48:05.250Z,9.42
2023-02-19T15:50:37.040Z,9.36
2023-02-19T15:53:10.162Z,9.33
2023-02-19T15:55:42.742Z,9.35
2023-02-19T15:58:20.587Z,9.37
2023-02-19T16:00:53.236Z,9.37
2023-02-19T16:03:23.950Z,9.38
2023-02-19T16:06:03.652Z,9.33
2023-02-19T16:08:33.411Z,9.34
2023-02-19T16:11:03.219Z,9.35
2023-02-19T16:13:34.517Z,9.35
2023-02-19T16:16:16.094Z,9.37
2023-02-19T16:18:47.392Z,9.38
2023-02-19T16:21:17.808Z,9.34
2023-02-19T16:23:49.064Z,9.34
2023-02-19T16:26:18.438Z,9.34
2023-02-19T16:28:52.647Z,9.34
2023-02-19T16:31:23.503Z,9.34
2023-02-19T16:33:52.170Z,9.34
2023-02-19T16:36:37.933Z,9.33
2023-02-19T16:39:21.133Z,9.27
2023-02-19T16:42:22.634Z,9.23
2023-02-19T16:44:52.365Z,9.19
2023-02-19T16:47:33.138Z,9.18
2023-02-19T16:50:03.778Z,9.16
2023-02-19T16:52:33.679Z,9.16
2023-02-19T16:55:02.096Z,9.14
2023-02-19T16:57:30.530Z,9.12
2023-02-19T17:00:00.389Z,9.11
2023-02-19T17:02:28.850Z,9.09
2023-02-19T17:04:57.331Z,9.09
2023-02-19T17:07:27.476Z,9.11
2023-02-19T17:09:55.960Z,9.13
2023-02-19T17:12:25.375Z,9.17
2023-02-19T17:14:53.794Z,9.17
2023-02-19T17:17:23.484Z,9.14
2023-02-19T17:19:51.817Z,9.14
2023-02-19T17:22:20.242Z,9.12
2023-02-19T17:24:48.574Z,9.13
2023-02-19T17:27:16.925Z,9.15
2023-02-19T17:29:45.440Z,9.15
2023-02-19T17:32:14.725Z,9.15
2023-02-19T17:34:44.774Z,9.14
2023-02-19T17:37:13.127Z,9.18
2023-02-19T17:39:41.467Z,9.18
2023-02-19T17:42:09.850Z,9.20
2023-02-19T17:44:38.201Z,9.21
2023-02-19T17:47:06.802Z,9.21
2023-02-19T17:49:36.365Z,9.17
2023-02-19T17:52:06.655Z,9.13
2023-02-19T17:54:35.328Z,9.12
2023-02-19T17:57:03.752Z,9.10
2023-02-19T17:59:32.349Z,9.06
2023-02-19T18:02:01.982Z,9.06
2023-02-19T18:04:30.392Z,9.01
2023-02-19T18:06:58.729Z,8.98
2023-02-19T18:09:28.517Z,8.96
2023-02-19T18:11:57.037Z,8.93
2023-02-19T18:14:25.413Z,8.92
2023-02-19T18:16:53.743Z,8.92
2023-02-19T18:19:22.914Z,8.92
2023-02-19T18:21:51.290Z,8.90
2023-02-19T18:24:20.253Z,8.87
2023-02-19T18:26:50.089Z,8.88
2023-02-19T18:29:19.946Z,8.90
2023-02-19T18:31:48.550Z,8.93
2023-02-19T18:34:19.319Z,8.97
2023-02-19T18:36:48.009Z,9.01
2023-02-19T18:39:16.769Z,8.98
2023-02-19T18:41:49.951Z,8.99
2023-02-19T18:44:20.111Z,8.99
2023-02-19T18:46:48.538Z,9.00
2023-02-19T18:49:17.289Z,9.01
2023-02-19T18:51:45.630Z,9.03
2023-02-19T18:54:14.249Z,9.01
2023-02-19T18:56:44.172Z,8.98
2023-02-19T18:59:14.636Z,8.96
2023-02-19T19:01:43.195Z,8.96
2023-02-19T19:04:11.901Z,8.96
2023-02-19T19:06:40.297Z,8.97
2023-02-19T19:09:08.742Z,8.96
2023-02-19T19:11:40.508Z,8.93
2023-02-19T19:14:09.440Z,8.92
2023-02-19T19:16:39.186Z,8.89
2023-02-19T19:19:07.531Z,8.90
2023-02-19T19:21:36.194Z,8.89
2023-02-19T19:24:05.380Z,8.86
2023-02-19T19:26:33.850Z,8.86
2023-02-19T19:29:02.315Z,8.86
2023-02-19T19:31:36.243Z,8.85
2023-02-19T19:34:05.962Z,8.86
2023-02-19T19:36:34.767Z,8.85
2023-02-19T19:39:04.081Z,8.85
2023-02-19T19:41:32.570Z,8.85
2023-02-19T19:44:03.627Z,8.85
2023-02-19T19:46:32.337Z,8.86
2023-02-19T19:49:00.847Z,8.86
2023-02-19T19:51:34.504Z,8.85
2023-02-19T19:54:04.188Z,8.89
2023-02-19T19:56:32.751Z,8.89
2023-02-19T19:59:01.803Z,8.92
2023-02-19T20:01:30.475Z,8.93
2023-02-19T20:03:58.855Z,8.94
2023-02-19T20:06:28.652Z,8.91
2023-02-19T20:08:59.592Z,8.90
2023-02-19T20:11:28.069Z,8.88
2023-02-19T20:13:56.466Z,8.91
2023-02-19T20:16:26.266Z,8.92
2023-02-19T20:18:55.282Z,8.94
2023-02-19T20:21:23.841Z,8.94
2023-02-19T20:23:52.153Z,8.96
2023-02-19T20:26:25.966Z,8.96
2023-02-19T20:28:54.650Z,8.97
2023-02-19T20:31:23.770Z,8.98
2023-02-19T20:33:52.732Z,8.98
2023-02-19T20:36:21.320Z,8.98
2023-02-19T20:38:50.921Z,8.99
2023-02-19T20:41:19.298Z,8.99
2023-02-19T20:43:49.070Z,8.99
2023-02-19T20:46:17.647Z,8.99
2023-02-19T20:48:46.130Z,9.01
2023-02-19T20:51:14.460Z,9.04
2023-02-19T20:53:43.663Z,9.06
2023-02-19T20:56:12.671Z,9.08
2023-02-19T20:58:50.992Z,9.09
2023-02-19T21:01:26.836Z,9.10
2023-02-19T21:03:55.366Z,9.13
2023-02-19T21:06:24.631Z,9.16
2023-02-19T21:08:53.001Z,9.16
2023-02-19T21:11:21.339Z,9.15
2023-02-19T21:13:51.260Z,9.14
2023-02-19T21:16:19.696Z,9.12
2023-02-19T21:18:48.063Z,9.12
2023-02-19T21:21:20.103Z,9.11
2023-02-19T21:23:48.501Z,9.14
2023-02-19T21:26:16.868Z,9.16
2023-02-19T21:28:45.222Z,9.18
2023-02-19T21:31:15.050Z,9.17
2023-02-19T21:33:43.378Z,9.15
2023-02-19T21:36:12.161Z,9.15
2023-02-19T21:38:40.742Z,9.15
2023-02-19T21:41:09.016Z,9.12
2023-02-19T21:43:37.397Z,9.11
2023-02-19T21:46:06.114Z,9.09
2023-02-19T21:48:35.850Z,9.10
2023-02-19T21:51:05.021Z,9.12
2023-02-19T21:53:33.329Z,9.14
2023-02-19T21:56:01.904Z,9.14
2023-02-19T21:58:30.282Z,9.16
2023-02-19T22:00:59.024Z,9.15
2023-02-19T22:03:27.448Z,9.17
2023-02-19T22:05:57.315Z,9.19
2023-02-19T22:08:26.096Z,9.19
2023-02-19T22:10:54.484Z,9.19
2023-02-19T22:13:22.868Z,9.21
2023-02-19T22:15:51.154Z,9.20
2023-02-19T22:18:19.454Z,9.17
2023-02-19T22:20:47.891Z,9.16
2023-02-19T22:23:17.586Z,9.14
2023-02-19T22:25:45.941Z,9.13
2023-02-19T22:28:14.385Z,9.16
2023-02-19T22:30:43.168Z,9.15
2023-02-19T22:33:11.557Z,9.13
2023-02-19T22:35:40.072Z,9.12
2023-02-19T22:38:08.399Z,9.12
2023-02-19T22:40:38.154Z,9.11
2023-02-19T22:43:06.545Z,9.11
2023-02-19T22:45:34.915Z,9.09
2023-02-19T22:48:03.269Z,9.10
2023-02-19T22:50:31.776Z,9.10
2023-02-19T22:53:00.291Z,9.12
2023-02-19T22:55:28.635Z,9.13
2023-02-19T22:57:58.405Z,9.15
2023-02-19T23:00:27.700Z,9.18
2023-02-19T23:02:56.014Z,9.22
2023-02-19T23:05:25.509Z,9.25
2023-02-19T23:07:53.897Z,9.27
2023-02-19T23:10:22.279Z,9.29
2023-02-19T23:12:50.617Z,9.28
2023-02-19T23:15:20.477Z,9.26
2023-02-19T23:17:48.820Z,9.25
2023-02-19T23:20:17.314Z,9.25
2023-02-19T23:22:45.660Z,9.23
2023-02-19T23:25:14.064Z,9.22
2023-02-19T23:27:42.499Z,9.23
2023-02-19T23:30:14.258Z,9.25
2023-02-19T23:32:44.035Z,9.25
2023-02-19T23:35:12.585Z,9.23
2023-02-19T23:37:40.933Z,9.25
2023-02-19T23:40:10.350Z,9.26
2023-02-19T23:42:38.695Z,9.26
2023-02-19T23:45:07.439Z,9.25
2023-02-19T23:47:35.856Z,9.26
2023-02-19T23:50:06.246Z,9.28
2023-02-19T23:52:35.461Z,9.27
2023-02-19T23:55:04.013Z,9.22
2023-02-19T23:57:32.302Z,9.23
